Kargopol, Russia
Current Conditions -  °F | °C
As of 4:30 PM on Thursday 30 Oct 2014 (Local Time) from ULPB Reporting Station
Clear Clear  
Wind Chill: 38°   Ceiling: Unl
Heat Index: 41°   Visibility: 6mi
Dew Point: 36°   Wind: 4mph
Humidity: 81%   Direction: 220°SW
Pressure: 29.85"   Gusts: NA
Location:  61.5°N, 38.97°E
Report Text: ULPB 301330Z 22002MPS CAVOK 05/02 Q1011 NOSIG RMK QFE755/1006SC070
Loading
Personal Weather Stations






























Interactive Weather Map
Tropical Storm Tracking
New forecast layout! Learn more

10-Day Weather Forecast

Advertisements
Track Severe Weather on mobile